»·PEaware :: N104FG L88-KSBP

N104FG :: L88-KSBP

FLIGHT INFORMATION

Flight Status: Arrived
Operator: Privately registered:
United States
More flights under this callsign
Pilot: Jesus M. (16267)
Aircraft: PIPER PA-28 CHEROKEE ARCHER
(P28A)
More flights by this aircraft type
Origin: L88 New Cuyama
United States
Destination: KSBP San Luis Co Regl
United States
More flights between these airports :: More routes between these airports
Route: L88 KSBP 4500
File this flight plan on PilotEdge
Remarks: requesting CAT II rating
Altitude:
(Current/Filed)
4,500ft
Speed:
(Current/Filed)
120kts
Departed: 12-May-18 08:09 PM
Arrived: 12-May-18 08:43 PM
Distance/Time
Traveled:
50nm/0:34
Distance/Time
To Go:
Arrived

Flight Plot

Page will automatically refresh every two minutes.

Flight plan parsing failed; only flown route is shown


Map Options




Map Legend


Flown Route
Filed Route
Departure Airport
Arrival Airport
Navaid (VOR, NDB)
Fix

Horizontal Profiles

Position Reports

Time Latitude Longitude Heading Altitude Ground
Speed
12-May-18 20:04 34.939968 -119.693829 22 2206ft 0kts
12-May-18 20:05 34.939968 -119.693829 22 2206ft 0kts
12-May-18 20:06 34.939970 -119.693828 22 2206ft 0kts
12-May-18 20:07 34.939977 -119.693825 22 2206ft 0kts
12-May-18 20:08 34.939927 -119.694225 196 2206ft 0kts
12-May-18 20:09 34.934877 -119.681272 112 2413ft 95kts
12-May-18 20:10 34.947061 -119.679099 310 3091ft 114kts
12-May-18 20:11 34.964681 -119.710723 301 3688ft 113kts
12-May-18 20:12 34.982802 -119.737972 301 4424ft 98kts
12-May-18 20:13 34.999395 -119.770368 301 4512ft 114kts
12-May-18 20:14 35.015342 -119.803714 296 4502ft 113kts
12-May-18 20:15 35.030169 -119.836767 299 4506ft 109kts
12-May-18 20:16 35.046249 -119.865377 287 4527ft 90kts
12-May-18 20:17 35.057576 -119.891629 276 4512ft 83kts
12-May-18 20:18 35.065660 -119.918739 281 4512ft 83kts
12-May-18 20:19 35.073282 -119.946167 276 4516ft 83kts
12-May-18 20:20 35.080616 -119.975044 281 4502ft 94kts
12-May-18 20:21 35.087168 -120.005135 277 4501ft 95kts
12-May-18 20:22 35.094076 -120.038306 282 4512ft 103kts
12-May-18 20:23 35.098657 -120.073886 279 4521ft 107kts
12-May-18 20:24 35.101877 -120.107969 235 4499ft 103kts
12-May-18 20:25 35.082115 -120.135201 231 4532ft 105kts
12-May-18 20:26 35.063810 -120.162235 232 4296ft 108kts
12-May-18 20:27 35.043755 -120.190352 232 3838ft 114kts
12-May-18 20:28 35.024102 -120.218661 231 3331ft 111kts
12-May-18 20:29 35.023593 -120.253746 278 2557ft 106kts
12-May-18 20:30 35.034620 -120.285414 294 2496ft 101kts
12-May-18 20:31 35.049505 -120.314175 298 2508ft 100kts
12-May-18 20:32 35.064848 -120.342697 299 2508ft 100kts
12-May-18 20:33 35.080433 -120.371144 297 2504ft 100kts
12-May-18 20:34 35.096068 -120.399410 305 2505ft 101kts
12-May-18 20:35 35.113545 -120.426919 304 2387ft 108kts
12-May-18 20:36 35.130543 -120.457933 301 1982ft 104kts
12-May-18 20:37 35.146713 -120.487241 299 1796ft 111kts
12-May-18 20:38 35.163948 -120.517561 303 1527ft 108kts
12-May-18 20:39 35.181054 -120.544869 304 1460ft 97kts
12-May-18 20:40 35.196785 -120.571634 301 1416ft 96kts
12-May-18 20:41 35.212739 -120.597695 304 1183ft 92kts
12-May-18 20:42 35.227067 -120.622919 303 539ft 83kts
12-May-18 20:43 35.237035 -120.640445 324 215ft 9kts
12-May-18 20:44 35.237508 -120.640178 358 215ft 0kts
12-May-18 20:45 35.238100 -120.639446 39 215ft 0kts
12-May-18 20:46 35.238100 -120.639446 39 215ft 0kts
12-May-18 20:47 35.238100 -120.639446 39 215ft 0kts
12-May-18 20:48 35.238100 -120.639446 39 215ft 0kts
12-May-18 20:49 35.238100 -120.639446 39 215ft 0kts
12-May-18 20:50 35.238100 -120.639446 39 215ft 0kts
12-May-18 20:51 35.238100 -120.639446 39 215ft 0kts
12-May-18 20:52 35.238100 -120.639446 39 215ft 0kts
12-May-18 20:53 35.238100 -120.639446 39 215ft 0kts
12-May-18 20:54 35.238100 -120.639446 39 215ft 0kts
12-May-18 20:55 35.238100 -120.639446 39 215ft 0kts

Navigation Log

Ident Type
Flight plan parsing failed, navigation log unavailable